Time;durP1;ratioP1;P1;durP2;ratioP2;P2;SDS_P1;SDS_P2;PMS_P1;PMS_P2;Temp;Humidity;BMP_temperature;BMP_pressure;BME280_temperature;BME280_humidity;BME280_pressure;Samples;Min_cycle;Max_cycle;Signal;HPM_P1;HPM_P2
2022/09/21 00:00:48;;;;;;;6.60;4.43;;;15.30;50.80;;;;;;5033193;28;20173;-42
2022/09/21 00:03:14;;;;;;;7.70;3.57;;;15.30;50.90;;;;;;5032932;28;20308;-42
2022/09/21 00:05:40;;;;;;;6.95;4.40;;;15.30;50.80;;;;;;5032600;28;20407;-43
2022/09/21 00:08:09;;;;;;;6.13;4.20;;;15.30;50.90;;;;;;5032808;28;20198;-42
2022/09/21 00:10:35;;;;;;;5.88;3.70;;;15.30;50.90;;;;;;5032825;28;20420;-43
2022/09/21 00:13:04;;;;;;;6.40;4.53;;;15.30;50.90;;;;;;5032765;28;20206;-42
2022/09/21 00:15:30;;;;;;;5.68;3.92;;;15.30;51.00;;;;;;5032524;28;20264;-42
2022/09/21 00:17:58;;;;;;;4.35;3.60;;;15.30;51.00;;;;;;5032370;28;20340;-42
2022/09/21 00:20:25;;;;;;;3.90;3.42;;;15.30;51.00;;;;;;5032978;28;20558;-42
2022/09/21 00:22:51;;;;;;;5.95;3.65;;;15.30;51.10;;;;;;5032274;28;20240;-42
2022/09/21 00:25:19;;;;;;;6.05;4.85;;;15.30;51.10;;;;;;5014925;28;20228;-41
2022/09/21 00:27:50;;;;;;;3.85;3.45;;;15.30;51.10;;;;;;5032149;28;20734;-42
2022/09/21 00:30:16;;;;;;;6.28;4.22;;;15.30;51.10;;;;;;5032533;28;20213;-42
2022/09/21 00:32:41;;;;;;;5.80;4.57;;;15.30;51.10;;;;;;5032627;28;20201;-42
2022/09/21 00:35:08;;;;;;;4.50;4.10;;;15.30;51.30;;;;;;5032406;28;20727;-42
2022/09/21 00:37:35;;;;;;;6.57;4.95;;;15.30;51.30;;;;;;5032035;28;20174;-41
2022/09/21 00:40:01;;;;;;;4.35;3.45;;;15.30;51.30;;;;;;5032338;28;20186;-40
2022/09/21 00:42:33;;;;;;;9.05;4.07;;;15.30;51.30;;;;;;5032401;28;20227;-40
2022/09/21 00:44:59;;;;;;;6.30;4.70;;;15.40;51.20;;;;;;5032353;28;20158;-40
2022/09/21 00:47:41;;;;;;;6.90;4.15;;;15.30;51.20;;;;;;5031644;28;20678;-40
2022/09/21 00:50:10;;;;;;;11.65;4.10;;;15.30;51.20;;;;;;5032304;28;20622;-42
2022/09/21 00:52:44;;;;;;;4.75;4.00;;;15.30;51.20;;;;;;5032105;28;20284;-42
2022/09/21 00:55:12;;;;;;;4.95;4.45;;;15.30;51.20;;;;;;5032301;28;20224;-42
2022/09/21 00:57:38;;;;;;;6.10;4.20;;;15.30;51.30;;;;;;5031606;28;20177;-42
2022/09/21 01:00:07;;;;;;;7.20;3.70;;;15.30;51.30;;;;;;5032088;28;20174;-42
2022/09/21 01:02:35;;;;;;;5.78;3.75;;;15.30;51.20;;;;;;5032118;28;20447;-42
2022/09/21 01:05:05;;;;;;;6.10;4.75;;;15.30;51.20;;;;;;5032178;28;20181;-42
2022/09/21 01:07:34;;;;;;;7.05;4.05;;;15.30;51.20;;;;;;5031452;28;20668;-42
2022/09/21 01:10:04;;;;;;;4.25;3.65;;;15.30;51.20;;;;;;5032036;28;20608;-42
2022/09/21 01:12:36;;;;;;;4.88;3.95;;;15.30;51.30;;;;;;5032065;28;20190;-42
2022/09/21 01:15:44;;;;;;;7.90;3.22;;;15.30;51.20;;;;;;5032106;28;20185;-43
2022/09/21 01:18:25;;;;;;;3.72;3.40;;;15.30;51.00;;;;;;5031920;28;20285;-42
2022/09/21 01:20:56;;;;;;;7.15;3.38;;;15.20;51.10;;;;;;5031978;28;20176;-42
2022/09/21 01:23:49;;;;;;;5.93;4.55;;;15.20;51.20;;;;;;5031923;28;20166;-43
2022/09/21 01:26:14;;;;;;;5.20;3.38;;;15.30;51.20;;;;;;5031489;28;20193;-42
2022/09/21 01:28:59;;;;;;;3.90;3.27;;;15.20;51.00;;;;;;5032034;28;20579;-42
2022/09/21 01:31:32;;;;;;;6.50;4.18;;;15.20;51.00;;;;;;5031638;28;20300;-42
2022/09/21 01:34:05;;;;;;;5.63;4.22;;;15.20;51.00;;;;;;5032848;28;20161;-42
2022/09/21 01:36:32;;;;;;;4.85;3.90;;;15.20;50.90;;;;;;5035321;28;20170;-42
2022/09/21 01:39:11;;;;;;;4.13;3.30;;;15.10;50.90;;;;;;5035884;28;20197;-42
2022/09/21 01:41:40;;;;;;;4.18;3.55;;;15.10;50.70;;;;;;5035691;28;20541;-42
2022/09/21 01:44:14;;;;;;;3.78;3.35;;;15.00;50.70;;;;;;5035624;28;20205;-42
2022/09/21 01:46:39;;;;;;;6.25;4.28;;;15.00;50.70;;;;;;5034945;28;20174;-42
2022/09/21 01:49:20;;;;;;;4.93;3.63;;;15.00;50.70;;;;;;5035687;28;20197;-43
2022/09/21 01:52:17;;;;;;;6.97;3.92;;;14.90;50.60;;;;;;5035511;28;20190;-42
2022/09/21 01:54:53;;;;;;;4.53;3.17;;;14.90;50.80;;;;;;5035772;28;20208;-42
2022/09/21 01:57:29;;;;;;;3.75;3.45;;;14.90;50.70;;;;;;5034790;28;20174;-42
2022/09/21 01:59:59;;;;;;;4.10;3.63;;;14.90;50.80;;;;;;5035547;28;20238;-43
2022/09/21 02:02:31;;;;;;;4.43;3.95;;;14.90;50.80;;;;;;5035364;28;20182;-43
2022/09/21 02:05:00;;;;;;;7.32;3.85;;;14.90;50.70;;;;;;5035306;28;20170;-42
2022/09/21 02:07:27;;;;;;;5.25;4.10;;;14.80;50.60;;;;;;5034867;28;20201;-43
2022/09/21 02:09:54;;;;;;;6.15;3.40;;;14.70;50.60;;;;;;5017363;28;20198;-42
2022/09/21 02:12:21;;;;;;;4.72;3.60;;;14.70;50.50;;;;;;5035086;28;20221;-43
2022/09/21 02:14:50;;;;;;;6.80;2.92;;;14.80;50.50;;;;;;5035286;28;20173;-42
2022/09/21 02:18:14;;;;;;;6.15;3.65;;;14.70;50.40;;;;;;5034333;28;20174;-43
2022/09/21 02:20:53;;;;;;;5.65;4.28;;;14.70;50.20;;;;;;5003407;28;20235;-42
2022/09/21 02:23:48;;;;;;;5.72;3.88;;;14.70;50.20;;;;;;5034864;28;20178;-43
2022/09/21 02:26:25;;;;;;;8.75;5.60;;;14.60;50.10;;;;;;5034152;28;20549;-43
2022/09/21 02:29:00;;;;;;;8.10;4.90;;;14.50;50.10;;;;;;5034843;28;20255;-42
2022/09/21 02:31:58;;;;;;;9.00;5.00;;;14.50;50.10;;;;;;5034682;28;20201;-42
2022/09/21 02:34:32;;;;;;;8.35;4.88;;;14.50;50.20;;;;;;5034798;28;20158;-42
2022/09/21 02:37:26;;;;;;;9.30;5.32;;;14.40;50.20;;;;;;5034173;28;20162;-43
2022/09/21 02:40:11;;;;;;;8.48;6.13;;;14.40;50.20;;;;;;5034550;28;20251;-43
2022/09/21 02:42:42;;;;;;;7.13;5.55;;;14.40;50.30;;;;;;5034908;28;20245;-42
2022/09/21 02:45:17;;;;;;;6.30;4.70;;;14.40;50.30;;;;;;5034383;28;20166;-42
2022/09/21 02:47:58;;;;;;;5.20;4.15;;;14.40;50.50;;;;;;5033905;28;20150;-42
2022/09/21 02:50:32;;;;;;;5.97;4.43;;;14.30;50.40;;;;;;5034408;28;20170;-42
2022/09/21 02:53:00;;;;;;;6.53;5.03;;;14.30;50.60;;;;;;5034556;28;20558;-42
2022/09/21 02:55:27;;;;;;;7.13;4.30;;;14.40;50.60;;;;;;5034140;28;20227;-43
2022/09/21 02:57:55;;;;;;;5.38;4.68;;;14.30;50.70;;;;;;5033795;28;20215;-42
2022/09/21 03:00:21;;;;;;;5.70;4.97;;;14.40;50.80;;;;;;5034463;28;20185;-43
2022/09/21 03:02:46;;;;;;;6.20;4.50;;;14.40;50.70;;;;;;5034214;28;20170;-42
2022/09/21 03:05:13;;;;;;;5.60;4.40;;;14.40;50.80;;;;;;5034093;28;20400;-42
2022/09/21 03:07:40;;;;;;;4.43;4.00;;;14.40;50.80;;;;;;5033351;28;20185;-42
2022/09/21 03:10:07;;;;;;;6.28;4.22;;;14.40;51.00;;;;;;5034067;28;20677;-43
2022/09/21 03:12:33;;;;;;;4.72;4.22;;;14.50;51.10;;;;;;5034065;28;20213;-42
2022/09/21 03:14:59;;;;;;;3.93;3.23;;;14.50;51.10;;;;;;5034104;28;20510;-42
2022/09/21 03:17:26;;;;;;;6.90;4.40;;;14.50;51.90;;;;;;5033367;28;20433;-42
2022/09/21 03:19:53;;;;;;;3.70;3.15;;;14.50;51.20;;;;;;5033587;28;20967;-42
2022/09/21 03:22:21;;;;;;;4.80;4.15;;;14.50;51.20;;;;;;5033799;28;20653;-42
2022/09/21 03:24:47;;;;;;;7.97;3.72;;;14.60;51.20;;;;;;5033853;28;20205;-42
2022/09/21 03:27:18;;;;;;;5.50;3.78;;;14.60;51.20;;;;;;5033385;28;20201;-42
2022/09/21 03:29:45;;;;;;;5.68;4.25;;;14.60;51.10;;;;;;5033630;28;20247;-43
2022/09/21 03:32:11;;;;;;;4.05;3.65;;;14.60;51.20;;;;;;5033716;28;20259;-43
2022/09/21 03:34:37;;;;;;;6.80;4.10;;;14.60;51.10;;;;;;5033569;28;20163;-43
2022/09/21 03:37:05;;;;;;;6.43;4.03;;;14.60;51.20;;;;;;5032880;28;20181;-42
2022/09/21 03:39:31;;;;;;;4.03;3.25;;;14.70;51.30;;;;;;5033589;28;20562;-42
2022/09/21 03:41:57;;;;;;;7.00;4.10;;;14.70;51.30;;;;;;5033417;28;20197;-43
2022/09/21 03:44:24;;;;;;;8.25;3.75;;;14.70;51.30;;;;;;5033382;28;20232;-42
2022/09/21 03:46:50;;;;;;;7.28;3.78;;;14.70;51.30;;;;;;5032728;28;20186;-43
2022/09/21 03:49:17;;;;;;;8.73;5.43;;;14.70;51.20;;;;;;5033224;28;20205;-42
2022/09/21 03:51:43;;;;;;;5.00;3.92;;;14.80;51.30;;;;;;5033481;28;20209;-42
2022/09/21 03:54:09;;;;;;;5.30;3.88;;;14.80;51.30;;;;;;5033196;28;20174;-42
2022/09/21 03:56:36;;;;;;;6.30;4.43;;;14.80;51.30;;;;;;5032063;28;20185;-43
2022/09/21 03:59:01;;;;;;;6.60;4.65;;;14.80;51.20;;;;;;5032991;28;20452;-43
2022/09/21 04:01:27;;;;;;;6.63;4.70;;;14.90;51.30;;;;;;5033254;28;20202;-42
2022/09/21 04:03:53;;;;;;;7.43;4.43;;;14.90;51.30;;;;;;5033221;28;20769;-43
2022/09/21 04:06:19;;;;;;;4.77;4.37;;;14.90;51.30;;;;;;5032416;28;20170;-42
2022/09/21 04:08:45;;;;;;;6.70;4.67;;;14.90;51.40;;;;;;5032914;28;20682;-43
2022/09/21 04:11:16;;;;;;;6.45;5.10;;;14.90;51.40;;;;;;5032883;28;20435;-43
2022/09/21 04:13:42;;;;;;;6.85;4.60;;;14.90;51.30;;;;;;5032799;28;20177;-42
2022/09/21 04:16:09;;;;;;;8.13;4.97;;;14.90;51.30;;;;;;5032214;28;20170;-42
2022/09/21 04:18:36;;;;;;;6.35;4.40;;;14.90;51.20;;;;;;5032635;28;20213;-42
2022/09/21 04:21:04;;;;;;;7.38;5.60;;;14.90;51.30;;;;;;5032964;28;20228;-42
2022/09/21 04:23:29;;;;;;;7.15;4.70;;;14.90;51.20;;;;;;5032839;28;20193;-43
2022/09/21 04:25:56;;;;;;;7.53;4.93;;;14.90;51.00;;;;;;5032160;28;20182;-43
2022/09/21 04:28:22;;;;;;;5.78;4.20;;;14.90;50.90;;;;;;5032423;28;20239;-42
2022/09/21 04:30:52;;;;;;;8.63;4.67;;;14.90;50.90;;;;;;5032448;28;20189;-43
2022/09/21 04:33:19;;;;;;;5.85;4.57;;;14.80;50.80;;;;;;5032375;28;20473;-42
2022/09/21 04:35:44;;;;;;;8.60;4.28;;;14.80;50.70;;;;;;5031851;28;20205;-42
2022/09/21 04:38:11;;;;;;;6.93;5.70;;;14.70;50.50;;;;;;5032340;28;20271;-42
2022/09/21 04:40:37;;;;;;;6.07;4.93;;;14.70;50.50;;;;;;5032390;28;20174;-42
2022/09/21 04:43:03;;;;;;;5.20;4.45;;;14.60;50.50;;;;;;5032339;28;20177;-43
2022/09/21 04:45:29;;;;;;;7.53;5.03;;;14.60;50.50;;;;;;5032195;28;20170;-42
2022/09/21 04:47:55;;;;;;;6.68;4.70;;;14.60;50.60;;;;;;5032616;28;20256;-42
2022/09/21 04:50:21;;;;;;;9.60;4.80;;;14.60;50.50;;;;;;5032290;28;20260;-42
2022/09/21 04:52:46;;;;;;;6.60;5.40;;;14.60;50.40;;;;;;5032135;28;20202;-41
2022/09/21 04:55:12;;;;;;;5.50;4.10;;;14.60;50.30;;;;;;5032266;28;20193;-42
2022/09/21 04:57:38;;;;;;;6.50;5.17;;;14.50;50.20;;;;;;5031486;28;20197;-42
2022/09/21 05:00:05;;;;;;;7.17;5.03;;;14.50;50.20;;;;;;5032389;28;20257;-42
2022/09/21 05:02:31;;;;;;;10.10;5.30;;;14.50;50.10;;;;;;5032351;28;20228;-42
2022/09/21 05:04:56;;;;;;;8.63;6.30;;;14.50;50.20;;;;;;5031981;28;20174;-42
2022/09/21 05:07:22;;;;;;;7.57;5.27;;;14.50;50.20;;;;;;5031596;28;20256;-42
2022/09/21 05:10:03;;;;;;;8.07;5.67;;;14.50;50.30;;;;;;5031163;28;20276;-42
2022/09/21 05:12:30;;;;;;;6.63;5.70;;;14.40;50.30;;;;;;5032153;28;20191;-42
2022/09/21 05:14:56;;;;;;;8.80;5.95;;;14.40;50.50;;;;;;5031971;28;20185;-42
2022/09/21 05:17:22;;;;;;;8.50;5.23;;;14.50;50.70;;;;;;5031405;28;20166;-42
2022/09/21 05:19:49;;;;;;;7.03;5.72;;;14.50;50.70;;;;;;5031714;28;20229;-42
2022/09/21 05:22:15;;;;;;;5.57;4.70;;;14.50;50.80;;;;;;5031990;28;20189;-42
2022/09/21 05:24:40;;;;;;;8.30;6.07;;;14.50;50.90;;;;;;5031795;28;20166;-42
2022/09/21 05:27:06;;;;;;;8.90;6.67;;;14.50;50.90;;;;;;5031241;28;20178;-42
2022/09/21 05:29:32;;;;;;;6.83;5.87;;;14.50;50.90;;;;;;5032402;28;20190;-42
2022/09/21 05:32:02;;;;;;;9.63;6.60;;;14.60;51.00;;;;;;5032342;28;20272;-42
2022/09/21 05:34:58;;;;;;;9.30;5.68;;;14.60;51.00;;;;;;5032051;28;20463;-42
2022/09/21 05:37:23;;;;;;;6.65;5.32;;;14.60;50.80;;;;;;5031475;28;20163;-42
2022/09/21 05:39:49;;;;;;;7.77;6.40;;;14.60;51.00;;;;;;5031817;28;20193;-42
2022/09/21 05:42:15;;;;;;;11.00;6.37;;;14.70;51.10;;;;;;5031842;28;20226;-42
2022/09/21 05:44:41;;;;;;;8.43;6.30;;;14.70;51.10;;;;;;5032011;28;20412;-42
2022/09/21 05:47:22;;;;;;;8.80;6.37;;;14.70;51.10;;;;;;5030970;28;20409;-42
2022/09/21 05:50:00;;;;;;;9.77;8.45;;;14.70;51.10;;;;;;5031476;28;20515;-42
2022/09/21 05:52:37;;;;;;;8.65;6.65;;;14.80;51.20;;;;;;5031732;28;20213;-42
2022/09/21 05:55:12;;;;;;;9.20;7.57;;;14.80;51.20;;;;;;5031619;28;20170;-42
2022/09/21 05:57:48;;;;;;;12.60;7.35;;;14.80;51.20;;;;;;5030985;28;20158;-42
2022/09/21 06:00:19;;;;;;;12.07;6.15;;;14.90;51.10;;;;;;5031762;28;20166;-42
2022/09/21 06:02:57;;;;;;;10.93;6.90;;;14.90;51.20;;;;;;5031565;28;20620;-42
2022/09/21 06:05:23;;;;;;;11.90;6.75;;;14.90;51.20;;;;;;5031553;28;20159;-42
2022/09/21 06:07:49;;;;;;;10.60;6.97;;;15.00;51.20;;;;;;5030803;28;20189;-42
2022/09/21 06:10:15;;;;;;;10.67;7.97;;;15.00;51.20;;;;;;5031443;28;20246;-42
2022/09/21 06:12:41;;;;;;;10.07;7.18;;;15.10;51.30;;;;;;5031514;28;20204;-42
2022/09/21 06:15:11;;;;;;;12.68;7.80;;;15.10;51.20;;;;;;5031429;28;20177;-42
2022/09/21 06:17:40;;;;;;;10.75;8.20;;;15.10;51.20;;;;;;5030750;28;20173;-41
2022/09/21 06:20:06;;;;;;;8.48;6.22;;;15.10;51.10;;;;;;5032473;28;20189;-42
2022/09/21 06:22:32;;;;;;;9.93;7.00;;;15.20;51.20;;;;;;5034969;28;20200;-42
2022/09/21 06:24:58;;;;;;;11.18;6.95;;;15.20;50.90;;;;;;5034802;28;20192;-42
2022/09/21 06:27:24;;;;;;;8.87;6.30;;;15.20;50.80;;;;;;5034268;28;20177;-42
2022/09/21 06:29:51;;;;;;;15.30;7.83;;;15.30;50.80;;;;;;5034824;28;20193;-42
2022/09/21 06:32:17;;;;;;;10.40;7.75;;;15.30;50.70;;;;;;5034886;28;20201;-42
2022/09/21 06:34:43;;;;;;;9.13;6.67;;;15.30;50.70;;;;;;5034945;28;20228;-42
2022/09/21 06:37:09;;;;;;;10.17;8.57;;;15.30;50.70;;;;;;5034332;28;20664;-42
2022/09/21 06:39:34;;;;;;;7.97;7.17;;;15.40;50.80;;;;;;5034542;28;20851;-42
2022/09/21 06:42:00;;;;;;;9.07;7.80;;;15.40;50.80;;;;;;5034846;28;20181;-42
2022/09/21 06:44:26;;;;;;;7.80;7.00;;;15.40;50.40;;;;;;5034587;28;20200;-42
2022/09/21 06:46:51;;;;;;;9.50;8.10;;;15.40;50.30;;;;;;5033905;28;20534;-42
2022/09/21 06:49:17;;;;;;;8.97;7.50;;;15.40;50.50;;;;;;5034405;28;20240;-42
2022/09/21 06:51:43;;;;;;;8.57;7.07;;;15.40;50.10;;;;;;5034421;28;20248;-42
2022/09/21 06:54:09;;;;;;;8.27;7.47;;;15.50;50.20;;;;;;5034278;28;20872;-42
2022/09/21 06:56:35;;;;;;;11.00;7.50;;;15.50;50.30;;;;;;5015989;28;20178;-42
2022/09/21 06:59:01;;;;;;;9.15;7.47;;;15.60;51.00;;;;;;5034305;28;20429;-42
2022/09/21 07:01:26;;;;;;;10.10;7.80;;;15.60;50.30;;;;;;5034492;28;20572;-42
2022/09/21 07:03:53;;;;;;;10.63;7.03;;;15.60;50.00;;;;;;5034430;28;20174;-42
2022/09/21 07:06:19;;;;;;;8.63;7.25;;;15.70;50.80;;;;;;5033570;28;20169;-42
2022/09/21 07:08:46;;;;;;;8.63;7.68;;;15.70;50.10;;;;;;5033984;28;20225;-42
2022/09/21 07:11:12;;;;;;;8.65;7.75;;;14.60;49.00;;;;;;5034082;28;20181;-42
2022/09/21 07:13:39;;;;;;;10.88;7.50;;;15.70;49.70;;;;;;5034207;28;20225;-42
2022/09/21 07:16:06;;;;;;;9.25;7.55;;;15.70;49.50;;;;;;5033416;28;20166;-42
2022/09/21 07:18:37;;;;;;;10.85;8.10;;;15.70;49.30;;;;;;5033699;28;20593;-42
2022/09/21 07:21:04;;;;;;;10.63;7.40;;;15.70;49.60;;;;;;5033885;28;20201;-42
2022/09/21 07:23:30;;;;;;;7.75;6.50;;;15.80;49.50;;;;;;5034064;28;20198;-42
2022/09/21 07:26:07;;;;;;;9.80;7.47;;;15.80;49.60;;;;;;5033217;28;20662;-42
2022/09/21 07:28:33;;;;;;;8.48;6.68;;;15.80;49.80;;;;;;5033640;28;20673;-42
2022/09/21 07:31:06;;;;;;;8.70;7.25;;;15.90;49.80;;;;;;5033430;28;20178;-42
2022/09/21 07:33:32;;;;;;;11.98;7.70;;;15.90;49.60;;;;;;5033404;28;20194;-42
2022/09/21 07:35:59;;;;;;;8.85;6.45;;;15.90;49.20;;;;;;5032918;28;20676;-42
2022/09/21 07:38:26;;;;;;;9.23;6.95;;;15.90;48.90;;;;;;5033683;28;20205;-42
2022/09/21 07:40:52;;;;;;;9.02;7.10;;;15.90;49.10;;;;;;5033641;28;20207;-42
2022/09/21 07:43:18;;;;;;;8.20;6.20;;;16.00;49.10;;;;;;5033434;28;20565;-42
2022/09/21 07:45:54;;;;;;;7.33;6.50;;;16.00;49.30;;;;;;5032837;28;20416;-42
2022/09/21 07:48:21;;;;;;;7.57;6.28;;;16.00;49.10;;;;;;5033247;28;20198;-42
2022/09/21 07:50:48;;;;;;;9.13;6.75;;;16.10;49.20;;;;;;5033257;28;20182;-42
2022/09/21 07:53:15;;;;;;;10.65;6.57;;;16.10;49.20;;;;;;5033478;28;20201;-41
2022/09/21 07:55:41;;;;;;;7.20;5.88;;;16.10;49.30;;;;;;5032623;28;20220;-42
2022/09/21 08:00:51;;;;;;;8.05;6.78;;;16.30;49.20;;;;;;5033586;28;20660;-42
2022/09/21 08:03:17;;;;;;;9.63;7.20;;;16.30;49.00;;;;;;5033000;28;20202;-42
2022/09/21 08:05:43;;;;;;;8.60;6.80;;;16.30;49.20;;;;;;5032416;28;20608;-42
2022/09/21 08:08:08;;;;;;;13.67;7.67;;;16.30;49.40;;;;;;5032636;28;20420;-42
2022/09/21 08:10:34;;;;;;;9.30;7.20;;;16.40;49.40;;;;;;5033013;28;20176;-42
2022/09/21 08:13:00;;;;;;;10.30;6.82;;;16.40;49.20;;;;;;5032933;28;20189;-41
2022/09/21 08:15:26;;;;;;;11.73;7.20;;;16.40;48.90;;;;;;5032693;28;20185;-42
2022/09/21 08:17:53;;;;;;;7.70;6.40;;;16.50;49.10;;;;;;5031981;28;20201;-41
2022/09/21 08:20:20;;;;;;;7.15;6.03;;;16.60;49.00;;;;;;5031964;28;20633;-42
2022/09/21 08:22:46;;;;;;;7.72;6.30;;;16.70;49.30;;;;;;5031835;28;20178;-42
2022/09/21 08:25:12;;;;;;;9.43;7.17;;;16.90;48.90;;;;;;5031892;28;20292;-42
2022/09/21 08:27:39;;;;;;;8.80;6.60;;;17.00;48.00;;;;;;5031557;28;20404;-42
2022/09/21 08:30:06;;;;;;;10.23;6.82;;;17.00;47.80;;;;;;5031807;28;20461;-42
2022/09/21 08:32:32;;;;;;;7.63;4.97;;;17.20;47.60;;;;;;5031967;28;20201;-42
2022/09/21 08:34:58;;;;;;;9.80;5.33;;;17.30;47.20;;;;;;5031691;28;20177;-42
2022/09/21 08:37:24;;;;;;;9.57;5.77;;;17.40;46.80;;;;;;5031061;28;20405;-42
2022/09/21 08:39:50;;;;;;;8.30;5.70;;;17.40;47.10;;;;;;5031660;28;20559;-43
2022/09/21 08:42:43;;;;;;;6.50;4.93;;;17.60;47.60;;;;;;5031635;28;20181;-42
2022/09/21 08:45:17;;;;;;;4.47;4.05;;;17.70;47.30;;;;;;5014106;28;20575;-41
2022/09/21 08:47:49;;;;;;;5.50;4.25;;;17.80;46.80;;;;;;5031190;28;20161;-42
2022/09/21 08:50:40;;;;;;;6.88;5.22;;;17.90;47.10;;;;;;5031463;28;20178;-42
2022/09/21 08:53:12;;;;;;;7.30;5.35;;;18.10;46.80;;;;;;5031330;28;20194;-43
2022/09/21 08:55:38;;;;;;;6.72;5.32;;;18.10;45.70;;;;;;5031139;28;20162;-42
2022/09/21 08:58:18;;;;;;;5.43;3.97;;;18.20;46.10;;;;;;5013659;28;20231;-42
2022/09/21 09:00:44;;;;;;;8.75;4.35;;;18.20;45.20;;;;;;5031575;28;20181;-43
2022/09/21 09:03:16;;;;;;;6.97;5.80;;;18.30;45.70;;;;;;5031351;28;20178;-42
2022/09/21 09:05:46;;;;;;;9.32;4.35;;;18.30;45.60;;;;;;5030959;28;20249;-43
2022/09/21 09:08:52;;;;;;;11.73;5.55;;;18.40;45.10;;;;;;5031362;28;20196;-42
2022/09/21 09:11:40;;;;;;;7.15;5.38;;;18.50;45.20;;;;;;5019836;28;20178;-42
2022/09/21 09:14:14;;;;;;;5.70;4.05;;;18.70;45.50;;;;;;5031393;28;20275;-42
2022/09/21 09:17:06;;;;;;;5.63;3.88;;;18.60;43.70;;;;;;5030855;28;20247;-43
2022/09/21 09:19:48;;;;;;;10.53;4.53;;;18.50;44.30;;;;;;4990566;28;1188062;-42
2022/09/21 09:22:26;;;;;;;10.52;3.55;;;18.50;44.50;;;;;;5031879;28;20633;-42
2022/09/21 09:24:59;;;;;;;7.60;4.97;;;18.60;45.00;;;;;;5031908;28;20216;-43
2022/09/21 09:27:34;;;;;;;4.88;4.28;;;18.80;45.50;;;;;;5031352;28;20166;-43
2022/09/21 09:30:13;;;;;;;6.30;4.15;;;19.00;45.80;;;;;;5031716;28;20288;-42
2022/09/21 09:33:00;;;;;;;5.50;4.07;;;19.00;43.30;;;;;;5031749;28;20196;-43
2022/09/21 09:35:27;;;;;;;6.15;3.72;;;19.00;43.80;;;;;;5031771;28;20185;-43
2022/09/21 09:38:04;;;;;;;4.22;3.47;;;18.90;43.40;;;;;;5031608;28;20174;-43
2022/09/21 09:40:48;;;;;;;8.18;3.65;;;18.80;43.30;;;;;;5031858;28;20252;-43
2022/09/21 09:43:26;;;;;;;6.78;4.95;;;18.80;43.50;;;;;;5031772;28;20178;-43
2022/09/21 09:46:06;;;;;;;7.50;4.18;;;18.80;43.70;;;;;;5031325;28;20642;-43
2022/09/21 09:49:12;;;;;;;4.63;3.22;;;18.90;44.40;;;;;;5031646;28;20202;-43
2022/09/21 09:51:39;;;;;;;6.30;3.85;;;18.80;43.40;;;;;;4987675;28;20277;-43
2022/09/21 09:54:12;;;;;;;4.10;3.45;;;18.90;43.70;;;;;;5031873;28;20166;-43
2022/09/21 09:56:38;;;;;;;3.45;3.00;;;19.00;43.60;;;;;;5034671;28;20154;-43
2022/09/21 09:59:22;;;;;;;6.73;3.80;;;19.20;43.50;;;;;;5035683;28;20618;-43
2022/09/21 10:02:00;;;;;;;5.35;3.55;;;19.40;43.40;;;;;;5035327;28;20393;-43
2022/09/21 10:04:26;;;;;;;4.40;3.20;;;19.50;42.40;;;;;;5035281;28;20700;-43
2022/09/21 10:06:52;;;;;;;4.72;2.40;;;19.50;41.90;;;;;;5034942;28;20178;-43
2022/09/21 10:09:27;;;;;;;4.90;2.97;;;19.50;42.60;;;;;;5035104;28;20768;-43
2022/09/21 10:12:18;;;;;;;3.88;2.88;;;19.70;43.00;;;;;;5035126;28;20192;-43
2022/09/21 10:14:55;;;;;;;3.30;2.67;;;19.70;43.00;;;;;;5024460;28;20534;-43
2022/09/21 10:17:24;;;;;;;3.53;2.88;;;19.70;42.70;;;;;;5034597;28;20170;-42
2022/09/21 10:19:59;;;;;;;3.20;2.40;;;19.60;41.60;;;;;;5017040;28;20209;-41
2022/09/21 10:22:27;;;;;;;3.00;1.92;;;19.70;42.60;;;;;;5035038;28;20166;-41
2022/09/21 10:24:53;;;;;;;4.05;2.10;;;19.60;42.50;;;;;;5035126;28;20212;-41
2022/09/21 10:27:27;;;;;;;3.60;1.88;;;19.80;43.30;;;;;;5034257;28;20173;-41
2022/09/21 10:29:54;;;;;;;7.10;2.65;;;19.80;42.30;;;;;;5035081;28;20206;-41
2022/09/21 10:32:23;;;;;;;3.20;2.28;;;19.80;41.60;;;;;;5035136;28;20206;-41
2022/09/21 10:35:04;;;;;;;3.15;2.75;;;19.80;41.50;;;;;;5034936;28;20257;-41
2022/09/21 10:37:34;;;;;;;3.33;2.63;;;19.90;42.30;;;;;;5034072;28;20204;-41
2022/09/21 10:40:00;;;;;;;3.63;2.70;;;19.80;42.10;;;;;;5016799;28;20194;-41
2022/09/21 10:42:34;;;;;;;5.55;2.05;;;19.80;42.10;;;;;;5034581;28;20174;-41
2022/09/21 10:45:17;;;;;;;3.03;2.42;;;19.70;42.50;;;;;;5034551;28;20170;-43
2022/09/21 10:47:51;;;;;;;2.05;1.75;;;19.70;42.80;;;;;;5033745;28;20170;-43
2022/09/21 10:50:36;;;;;;;3.58;2.20;;;19.50;43.00;;;;;;5034478;28;20178;-43
2022/09/21 10:53:08;;;;;;;6.43;2.13;;;19.50;43.00;;;;;;5034307;28;20232;-42
2022/09/21 10:55:39;;;;;;;2.95;2.05;;;19.50;43.50;;;;;;5033696;28;20673;-43
2022/09/21 10:58:12;;;;;;;5.35;2.28;;;19.70;43.90;;;;;;5034165;28;20217;-43
2022/09/21 11:00:44;;;;;;;3.10;2.28;;;19.80;43.50;;;;;;5034861;28;20174;-43
2022/09/21 11:03:40;;;;;;;2.55;2.13;;;19.90;42.80;;;;;;5034274;28;20181;-43
2022/09/21 11:06:15;;;;;;;2.53;2.00;;;19.90;42.40;;;;;;5033644;28;20522;-43
2022/09/21 11:08:48;;;;;;;2.38;2.17;;;19.80;42.60;;;;;;5034135;28;20190;-43
2022/09/21 11:11:46;;;;;;;3.60;1.92;;;19.80;42.50;;;;;;5034346;28;20166;-43
2022/09/21 11:14:11;;;;;;;7.78;3.20;;;20.00;42.70;;;;;;5001964;28;20673;-43
2022/09/21 11:16:59;;;;;;;2.93;1.90;;;20.10;41.80;;;;;;5033692;28;20273;-43
2022/09/21 11:19:51;;;;;;;3.30;1.73;;;20.10;42.00;;;;;;5033798;28;20213;-43
2022/09/21 11:22:37;;;;;;;3.80;1.83;;;20.10;42.00;;;;;;5033871;28;20573;-43
2022/09/21 11:25:45;;;;;;;2.40;1.63;;;20.10;41.50;;;;;;5034193;28;20162;-43
2022/09/21 11:28:45;;;;;;;2.60;2.20;;;20.00;40.90;;;;;;5030254;28;20201;-43
2022/09/21 11:31:23;;;;;;;4.43;2.15;;;19.80;41.50;;;;;;5034682;28;20169;-43
2022/09/21 11:33:57;;;;;;;2.70;1.90;;;19.70;41.70;;;;;;5033904;28;20198;-43
2022/09/21 11:36:52;;;;;;;8.80;2.25;;;19.80;42.60;;;;;;5033031;28;20169;-43
2022/09/21 11:39:29;;;;;;;2.70;2.50;;;20.00;43.20;;;;;;4999495;28;20198;-43
2022/09/21 11:42:03;;;;;;;2.78;2.30;;;20.20;41.90;;;;;;5033502;28;20709;-43
2022/09/21 11:44:57;;;;;;;3.15;1.85;;;20.50;41.90;;;;;;5033685;28;20169;-43
2022/09/21 11:47:48;;;;;;;3.20;1.85;;;20.70;41.70;;;;;;5032761;28;20169;-43
2022/09/21 11:50:26;;;;;;;2.25;2.05;;;20.70;40.70;;;;;;5033644;28;20185;-43
2022/09/21 11:53:04;;;;;;;2.40;1.80;;;20.60;40.60;;;;;;5033458;28;20462;-42
2022/09/21 11:55:56;;;;;;;2.70;2.05;;;20.60;40.90;;;;;;5033119;28;20158;-43
2022/09/21 11:58:36;;;;;;;3.05;2.00;;;20.60;40.20;;;;;;5033141;28;20256;-43
2022/09/21 12:01:44;;;;;;;1.98;1.77;;;20.50;40.60;;;;;;5033102;28;20194;-43
2022/09/21 12:04:21;;;;;;;5.70;2.03;;;20.50;40.10;;;;;;5033351;28;20162;-43
2022/09/21 12:07:29;;;;;;;2.15;1.95;;;20.40;40.90;;;;;;5032454;28;20256;-43
2022/09/21 12:10:07;;;;;;;2.55;1.85;;;20.30;40.20;;;;;;5033087;28;20198;-43
2022/09/21 12:12:47;;;;;;;2.63;1.88;;;20.30;41.40;;;;;;5032972;28;20736;-41
2022/09/21 12:15:31;;;;;;;2.97;1.70;;;20.30;41.60;;;;;;5032751;28;20189;-41
2022/09/21 12:18:07;;;;;;;2.58;2.05;;;20.30;41.50;;;;;;5031916;28;20189;-41
2022/09/21 12:20:57;;;;;;;2.40;2.05;;;20.30;41.30;;;;;;5032880;28;20352;-41
2022/09/21 12:23:38;;;;;;;4.25;2.08;;;20.30;40.90;;;;;;5032635;28;20704;-41
2022/09/21 12:26:05;;;;;;;2.15;1.50;;;20.30;39.50;;;;;;5032441;28;20213;-41
2022/09/21 12:28:39;;;;;;;3.17;1.80;;;20.30;39.90;;;;;;5032656;28;20197;-41
2022/09/21 12:31:17;;;;;;;2.38;1.73;;;20.30;39.00;;;;;;5032594;28;20716;-41
2022/09/21 12:33:57;;;;;;;3.25;1.58;;;20.30;40.30;;;;;;5032570;28;20247;-41
2022/09/21 12:36:48;;;;;;;2.65;2.05;;;20.30;38.60;;;;;;5031887;28;20161;-41
2022/09/21 12:39:19;;;;;;;1.73;1.48;;;20.40;39.50;;;;;;5018222;28;20293;-41
2022/09/21 12:42:41;;;;;;;2.90;1.75;;;20.50;39.20;;;;;;5032460;28;20530;-41
2022/09/21 12:45:27;;;;;;;2.33;1.55;;;20.50;39.40;;;;;;4951447;29;20204;-41
2022/09/21 12:47:58;;;;;;;2.60;1.58;;;20.50;38.60;;;;;;5031824;28;20172;-41
2022/09/21 12:50:39;;;;;;;3.08;1.60;;;20.60;39.20;;;;;;5032559;28;20193;-41
2022/09/21 12:53:08;;;;;;;2.85;1.73;;;20.60;39.70;;;;;;5032479;28;20200;-41
2022/09/21 12:55:53;;;;;;;3.88;2.00;;;20.50;39.30;;;;;;5031976;28;20174;-41
2022/09/21 12:59:02;;;;;;;3.25;1.88;;;20.50;39.90;;;;;;5032107;28;20198;-41
2022/09/21 13:01:58;;;;;;;2.75;1.42;;;20.50;40.40;;;;;;5032091;28;20166;-41
2022/09/21 13:05:02;;;;;;;2.67;1.60;;;20.30;40.70;;;;;;5032237;28;20186;-41
2022/09/21 13:07:59;;;;;;;3.47;1.55;;;20.50;41.60;;;;;;5031182;28;20169;-41
2022/09/21 13:10:30;;;;;;;3.45;1.60;;;20.70;41.90;;;;;;5032099;28;20170;-41
2022/09/21 13:13:00;;;;;;;2.28;1.67;;;20.80;41.30;;;;;;5032057;28;20204;-42
2022/09/21 13:15:29;;;;;;;4.88;2.63;;;20.90;41.00;;;;;;5031856;28;20754;-41
2022/09/21 13:18:04;;;;;;;2.88;2.10;;;20.90;40.50;;;;;;5031851;28;20275;-41